createdAt,value
2019-03-21T00:02:05.139Z,99.90
2019-03-21T00:08:13.570Z,99.90
2019-03-21T00:14:23.291Z,99.90
2019-03-21T00:20:28.302Z,99.90
2019-03-21T00:26:32.895Z,99.90
2019-03-21T00:32:37.480Z,99.90
2019-03-21T00:38:42.365Z,99.90
2019-03-21T00:44:46.917Z,99.90
2019-03-21T00:50:51.479Z,99.90
2019-03-21T00:56:56.100Z,99.90
2019-03-21T01:03:03.482Z,99.90
2019-03-21T01:09:16.774Z,99.90
2019-03-21T01:15:21.321Z,99.90
2019-03-21T01:21:25.878Z,99.90
2019-03-21T01:27:30.599Z,99.90
2019-03-21T01:33:35.141Z,99.90
2019-03-21T01:39:39.707Z,99.90
2019-03-21T01:45:44.256Z,99.90
2019-03-21T01:51:48.876Z,99.90
2019-03-21T01:57:53.443Z,99.90
2019-03-21T02:03:57.985Z,99.90
2019-03-21T02:10:02.617Z,99.90
2019-03-21T02:16:07.160Z,99.90
2019-03-21T02:22:11.714Z,99.90
2019-03-21T02:28:16.262Z,99.90
2019-03-21T02:34:20.810Z,99.90
2019-03-21T02:40:26.802Z,99.90
2019-03-21T02:46:31.446Z,99.90
2019-03-21T02:52:36.001Z,99.90
2019-03-21T02:58:40.586Z,99.90
2019-03-21T03:04:45.197Z,99.90
2019-03-21T03:10:56.850Z,99.90
2019-03-21T03:17:01.394Z,99.90
2019-03-21T03:23:06.037Z,99.90
2019-03-21T03:29:10.584Z,99.90
2019-03-21T03:35:15.502Z,99.90
2019-03-21T03:41:22.166Z,99.90
2019-03-21T03:47:26.714Z,99.90
2019-03-21T03:53:31.275Z,99.90
2019-03-21T03:59:35.905Z,99.90
2019-03-21T04:05:40.457Z,99.90
2019-03-21T04:11:45.089Z,99.90
2019-03-21T04:17:49.670Z,99.90
2019-03-21T04:23:54.226Z,99.90
2019-03-21T04:29:58.767Z,99.90
2019-03-21T04:36:03.325Z,99.90
2019-03-21T04:42:07.885Z,99.90
2019-03-21T04:48:12.504Z,99.90
2019-03-21T04:54:17.067Z,99.90
2019-03-21T05:00:35.056Z,99.90
2019-03-21T05:06:39.615Z,99.90
2019-03-21T05:12:44.236Z,99.90
2019-03-21T05:19:00.225Z,99.90
2019-03-21T05:25:08.297Z,99.90
2019-03-21T05:31:26.935Z,99.90
2019-03-21T05:37:31.502Z,99.90
2019-03-21T05:43:43.316Z,99.90
2019-03-21T05:49:47.966Z,99.90
2019-03-21T05:55:52.595Z,99.90
2019-03-21T06:01:57.156Z,99.90
2019-03-21T06:08:09.635Z,99.90
2019-03-21T06:14:14.420Z,99.90
2019-03-21T06:20:32.468Z,99.90
2019-03-21T06:27:25.585Z,99.90
2019-03-21T06:33:30.154Z,99.90
2019-03-21T06:39:34.686Z,99.90
2019-03-21T06:45:47.593Z,99.90
2019-03-21T06:51:45.538Z,99.90
2019-03-21T06:57:50.095Z,99.90
2019-03-21T07:03:54.665Z,99.90
2019-03-21T07:10:00.929Z,99.90
2019-03-21T07:16:05.616Z,99.90
2019-03-21T07:22:12.305Z,99.90
2019-03-21T07:28:16.541Z,99.90
2019-03-21T07:34:21.101Z,99.90
2019-03-21T07:40:25.671Z,99.90
2019-03-21T07:46:32.094Z,99.90
2019-03-21T07:52:36.581Z,99.90
2019-03-21T07:58:41.133Z,99.90
2019-03-21T08:04:45.703Z,99.90
2019-03-21T08:10:50.303Z,99.90
2019-03-21T08:16:54.866Z,99.90
2019-03-21T08:22:59.432Z,99.90
2019-03-21T08:29:04.060Z,99.90
2019-03-21T08:35:09.270Z,99.90
2019-03-21T08:41:13.971Z,99.90
2019-03-21T08:47:18.536Z,99.90
2019-03-21T08:53:23.133Z,99.90
2019-03-21T08:59:27.717Z,99.90
2019-03-21T09:05:32.454Z,99.90
2019-03-21T09:11:37.088Z,99.90
2019-03-21T09:17:41.720Z,95.10
2019-03-21T09:23:46.268Z,75.10
2019-03-21T09:29:53.733Z,67.30
2019-03-21T09:35:57.206Z,59.90
2019-03-21T09:42:01.792Z,52.80
2019-03-21T09:48:06.376Z,53.90
2019-03-21T09:54:10.944Z,53.60
2019-03-21T10:00:20.198Z,56.90
2019-03-21T10:06:24.847Z,55.60
2019-03-21T10:12:29.427Z,58.50
2019-03-21T10:18:33.992Z,61.80
2019-03-21T10:24:38.562Z,59.70
2019-03-21T10:30:43.699Z,55.60
2019-03-21T10:36:49.902Z,56.40
2019-03-21T10:42:54.483Z,55.20
2019-03-21T10:48:59.056Z,54.90
2019-03-21T10:55:04.682Z,54.30
2019-03-21T11:01:09.255Z,55.20
2019-03-21T11:07:12.286Z,55.40
2019-03-21T11:13:16.848Z,56.80
2019-03-21T11:19:21.486Z,54.50
2019-03-21T11:25:26.118Z,55.70
2019-03-21T11:31:30.680Z,54.50
2019-03-21T11:37:35.248Z,54.40
2019-03-21T11:43:39.812Z,56.40
2019-03-21T11:49:44.385Z,53.70
2019-03-21T11:55:49.004Z,55.40
2019-03-21T12:01:53.648Z,56.40
2019-03-21T12:07:58.217Z,52.20
2019-03-21T12:14:02.778Z,52.80
2019-03-21T12:20:29.217Z,51.70
2019-03-21T12:26:33.779Z,53.30
2019-03-21T12:32:38.354Z,50.20
2019-03-21T12:38:42.919Z,48.20
2019-03-21T12:44:49.469Z,47.30
2019-03-21T12:50:53.853Z,47.70
2019-03-21T12:56:58.416Z,45.60
2019-03-21T13:03:03.198Z,46.70
2019-03-21T13:09:09.023Z,47.80
2019-03-21T13:15:13.721Z,45.40
2019-03-21T13:21:18.414Z,45.90
2019-03-21T13:27:22.972Z,48.10
2019-03-21T13:33:27.531Z,48.40
2019-03-21T13:39:32.096Z,47.80
2019-03-21T13:45:36.747Z,48.30
2019-03-21T13:51:41.309Z,46.10
2019-03-21T13:57:45.864Z,44.90
2019-03-21T14:03:51.408Z,45.10
2019-03-21T14:09:55.975Z,45.00
2019-03-21T14:16:00.590Z,46.30
2019-03-21T14:22:05.150Z,45.90
2019-03-21T14:28:09.711Z,45.40
2019-03-21T14:34:14.277Z,44.20
2019-03-21T14:40:19.008Z,43.40
2019-03-21T14:46:23.574Z,43.60
2019-03-21T14:52:28.137Z,44.20
2019-03-21T14:58:32.699Z,46.00
2019-03-21T15:04:37.259Z,42.30
2019-03-21T15:10:41.817Z,42.50
2019-03-21T15:16:46.387Z,42.20
2019-03-21T15:22:50.955Z,41.90
2019-03-21T15:28:55.594Z,42.70
2019-03-21T15:35:00.245Z,41.30
2019-03-21T15:41:05.178Z,41.20
2019-03-21T15:47:09.877Z,41.00
2019-03-21T15:53:14.573Z,40.50
2019-03-21T15:59:19.141Z,40.70
2019-03-21T16:05:23.743Z,40.10
2019-03-21T16:11:28.278Z,40.70
2019-03-21T16:17:32.976Z,40.90
2019-03-21T16:23:37.533Z,41.80
2019-03-21T16:29:42.092Z,41.50
2019-03-21T16:35:46.655Z,42.10
2019-03-21T16:41:51.221Z,42.50
2019-03-21T16:47:55.786Z,45.60
2019-03-21T16:54:00.367Z,48.70
2019-03-21T17:00:08.884Z,52.50
2019-03-21T17:06:13.453Z,53.30
2019-03-21T17:12:18.049Z,55.60
2019-03-21T17:18:22.622Z,58.30
2019-03-21T17:24:29.587Z,64.80
2019-03-21T17:30:33.453Z,78.80
2019-03-21T17:36:38.024Z,96.50
2019-03-21T17:42:42.721Z,99.90
2019-03-21T17:48:47.385Z,99.90
2019-03-21T17:54:51.952Z,99.90
2019-03-21T18:00:56.512Z,99.90
2019-03-21T18:07:01.079Z,99.90
2019-03-21T18:13:06.568Z,99.90
2019-03-21T18:19:11.131Z,99.90
2019-03-21T18:25:15.759Z,99.90
2019-03-21T18:31:20.307Z,99.90
2019-03-21T18:37:24.887Z,99.90
2019-03-21T18:43:29.476Z,99.90
2019-03-21T18:49:34.034Z,99.90
2019-03-21T18:55:38.598Z,99.90
2019-03-21T19:01:43.201Z,99.90
2019-03-21T19:07:48.033Z,99.90
2019-03-21T19:13:52.602Z,99.90
2019-03-21T19:19:57.175Z,99.90
2019-03-21T19:26:01.843Z,99.90
2019-03-21T19:32:06.419Z,99.90
2019-03-21T19:38:11.317Z,99.90
2019-03-21T19:44:15.882Z,99.90
2019-03-21T19:50:22.643Z,99.90
2019-03-21T19:56:27.206Z,99.90
2019-03-21T20:02:31.827Z,99.90
2019-03-21T20:08:36.391Z,99.90
2019-03-21T20:14:40.970Z,99.90
2019-03-21T20:20:45.529Z,99.90
2019-03-21T20:26:50.167Z,99.90
2019-03-21T20:32:54.726Z,99.90
2019-03-21T20:38:59.292Z,99.90
2019-03-21T20:45:04.195Z,99.90
2019-03-21T20:51:08.843Z,99.90
2019-03-21T20:57:13.404Z,99.90
2019-03-21T21:03:18.938Z,99.90
2019-03-21T21:09:25.011Z,99.90
2019-03-21T21:15:29.636Z,99.90
2019-03-21T21:21:34.239Z,99.90
2019-03-21T21:27:48.735Z,99.90
2019-03-21T21:33:45.200Z,99.90
2019-03-21T21:39:49.875Z,99.90
2019-03-21T21:45:54.484Z,99.90
2019-03-21T21:51:59.048Z,99.90
2019-03-21T21:58:03.606Z,99.90
2019-03-21T22:04:08.229Z,99.90
2019-03-21T22:10:13.518Z,99.90
2019-03-21T22:16:18.095Z,99.90
2019-03-21T22:22:22.649Z,99.90
2019-03-21T22:28:27.206Z,99.90
2019-03-21T22:34:31.827Z,99.90
2019-03-21T22:40:36.474Z,99.90
2019-03-21T22:46:41.018Z,99.90
2019-03-21T22:52:46.372Z,99.90
2019-03-21T22:58:50.944Z,99.90
2019-03-21T23:04:55.484Z,99.90
2019-03-21T23:11:00.047Z,99.90
2019-03-21T23:17:04.605Z,99.90
2019-03-21T23:23:09.164Z,99.90
2019-03-21T23:29:13.720Z,99.90
2019-03-21T23:35:18.410Z,99.90
2019-03-21T23:41:23.003Z,99.90
2019-03-21T23:47:27.567Z,99.90
2019-03-21T23:53:32.195Z,99.90
2019-03-21T23:59:36.751Z,99.90
